Pearces, Michigan
Current Conditions -  °F | °C
As of 8:15 PM on Sunday 23 Nov 2014 (Local Time) from KOZW Reporting Station
Light Rain Light Rain  
Wind Chill: 42°   Ceiling: 6500
Heat Index: 48°   Visibility: 7mi
Dew Point: 46°   Wind: 14mph
Humidity: 93%   Direction: 130°SE
Pressure: 29.48"   Gusts: 18mph
Location:  42.7°N, 83.9305°W
Report Text: KOZW 240115Z AUTO 13012G16KT 7SM -RA BKN065 BKN075 OVC085 09/08 A2948 RMK AO2 T00890079
Loading
Personal Weather Stations






























Interactive Weather Map New forecast layout! Learn more

10-Day Weather Forecast

Advertisements
Track Severe Weather on mobile